Time;durP1;ratioP1;P1;durP2;ratioP2;P2;SDS_P1;SDS_P2;PMS_P1;PMS_P2;Temp;Humidity;BMP_temperature;BMP_pressure;BME280_temperature;BME280_humidity;BME280_pressure;Samples;Min_cycle;Max_cycle;Signal;HPM_P1;HPM_P2
2021/06/11 00:02:09;;;;;;;;;;;;;;;17.40;67.78;99655.75;4420594;32;33539;-92
2021/06/11 00:04:42;;;;;;;;;;;;;;;17.84;66.32;99655.44;4419923;32;34006;-94
2021/06/11 00:07:14;;;;;;;;;;;;;;;17.72;66.68;99649.94;4421075;32;34786;-94
2021/06/11 00:09:47;;;;;;;;;;;;;;;17.97;66.12;99657.13;4447769;32;34639;-92
2021/06/11 00:12:19;;;;;;;;;;;;;;;18.02;65.83;99667.34;4434449;32;34443;-93
2021/06/11 00:14:53;;;;;;;;;;;;;;;18.07;65.91;99661.97;4447055;32;33666;-94
2021/06/11 00:17:25;;;;;;;;;;;;;;;18.17;65.35;99668.53;4410395;32;33671;-91
2021/06/11 00:19:58;;;;;;;;;;;;;;;18.22;64.68;99656.88;4429327;32;35387;-92
2021/06/11 00:22:30;;;;;;;;;;;;;;;17.87;65.91;99654.94;4426226;32;34551;-92
2021/06/11 00:25:04;;;;;;;;;;;;;;;17.95;65.83;99659.28;4435742;32;33096;-94
2021/06/11 00:27:37;;;;;;;;;;;;;;;17.77;66.16;99658.28;4423439;32;35087;-94
2021/06/11 00:30:10;;;;;;;;;;;;;;;17.87;66.06;99656.88;4421907;32;34880;-91
2021/06/11 00:32:43;;;;;;;;;;;;;;;17.81;66.19;99659.50;4427063;32;33984;-94
2021/06/11 00:35:16;;;;;;;;;;;;;;;17.62;66.66;99663.41;4427467;32;33215;-92
2021/06/11 00:37:48;;;;;;;;;;;;;;;17.85;65.95;99664.47;4410827;32;33920;-93
2021/06/11 00:40:21;;;;;;;;;;;;;;;17.91;65.62;99674.50;4427150;32;33958;-91
2021/06/11 00:42:53;;;;;;;;;;;;;;;17.86;65.49;99666.13;4426242;32;33924;-91
2021/06/11 00:45:26;;;;;;;;;;;;;;;17.77;65.35;99663.75;4439511;32;33123;-91
2021/06/11 00:47:58;;;;;;;;;;;;;;;17.91;64.98;99664.38;4427094;32;33994;-93
2021/06/11 00:50:34;;;;;;;;;;;;;;;17.56;66.19;99672.50;4428123;32;34996;-92
2021/06/11 00:53:10;;;;;;;;;;;;;;;17.51;66.50;99659.56;4440510;32;33976;-93
2021/06/11 00:55:44;;;;;;;;;;;;;;;17.12;67.79;99657.22;4441654;32;33610;-93
2021/06/11 00:58:17;;;;;;;;;;;;;;;17.51;66.59;99669.66;4415543;32;34519;-91
2021/06/11 01:00:49;;;;;;;;;;;;;;;17.53;66.64;99659.31;4453985;32;34909;-91
2021/06/11 01:03:22;;;;;;;;;;;;;;;17.75;65.46;99663.13;4441395;32;33881;-92
2021/06/11 01:05:54;;;;;;;;;;;;;;;17.29;66.67;99662.84;4428819;32;33311;-91
2021/06/11 01:08:27;;;;;;;;;;;;;;;17.57;65.96;99663.25;4427721;32;34590;-93
2021/06/11 01:11:02;;;;;;;;;;;;;;;17.55;65.59;99651.75;4428845;32;34015;-92
2021/06/11 01:13:35;;;;;;;;;;;;;;;17.50;65.91;99660.66;4420768;32;33853;-92
2021/06/11 01:16:08;;;;;;;;;;;;;;;17.22;66.67;99666.75;4396095;32;33996;-91
2021/06/11 01:18:40;;;;;;;;;;;;;;;17.43;65.82;99663.47;4416853;32;33824;-91
2021/06/11 01:21:13;;;;;;;;;;;;;;;17.53;65.27;99656.59;4413332;32;34075;-94
2021/06/11 01:24:17;;;;;;;;;;;;;;;17.27;66.07;99658.69;4409840;32;35165;-93
2021/06/11 01:26:51;;;;;;;;;;;;;;;17.14;66.69;99653.41;4387054;32;33208;-93
2021/06/11 01:29:25;;;;;;;;;;;;;;;16.90;67.07;99647.88;4410749;32;34759;-92
2021/06/11 01:32:01;;;;;;;;;;;;;;;17.08;66.48;99645.09;4438806;32;34877;-93
2021/06/11 01:34:34;;;;;;;;;;;;;;;17.08;65.97;99638.78;4413614;32;33887;-94
2021/06/11 01:37:09;;;;;;;;;;;;;;;16.71;67.42;99634.22;4425356;32;33219;-94
2021/06/11 01:39:42;;;;;;;;;;;;;;;16.81;67.27;99639.16;4419425;32;34719;-92
2021/06/11 01:42:14;;;;;;;;;;;;;;;16.84;66.84;99646.03;4406833;32;34105;-91
2021/06/11 01:44:47;;;;;;;;;;;;;;;16.35;68.29;99641.41;4406787;32;33947;-91
2021/06/11 01:47:19;;;;;;;;;;;;;;;16.41;68.42;99640.47;4406516;32;33125;-92
2021/06/11 01:49:52;;;;;;;;;;;;;;;16.59;67.96;99636.09;4408207;32;33374;-90
2021/06/11 01:52:26;;;;;;;;;;;;;;;16.49;68.19;99635.78;4407605;32;34098;-91
2021/06/11 01:54:58;;;;;;;;;;;;;;;16.57;67.86;99628.13;4392613;32;33764;-92
2021/06/11 01:57:31;;;;;;;;;;;;;;;16.64;67.59;99638.94;4379686;32;33106;-91
2021/06/11 02:00:04;;;;;;;;;;;;;;;16.68;67.52;99642.06;4398711;32;34927;-95
2021/06/11 02:05:44;;;;;;;;;;;;;;;16.62;67.01;99645.69;4350129;32;35763;-92
2021/06/11 02:08:17;;;;;;;;;;;;;;;16.47;67.30;99654.28;4406395;32;32996;-95
2021/06/11 02:11:02;;;;;;;;;;;;;;;16.71;66.30;99647.06;4405845;32;34765;-89
2021/06/11 02:13:34;;;;;;;;;;;;;;;16.79;65.76;99645.91;4368759;32;33160;-94
2021/06/11 02:16:49;;;;;;;;;;;;;;;16.57;66.48;99644.50;4372683;32;35083;-91
2021/06/11 02:19:22;;;;;;;;;;;;;;;16.64;65.28;99646.31;4366635;32;34975;-96
2021/06/11 02:22:32;;;;;;;;;;;;;;;16.37;66.46;99655.63;4244932;32;35021;-89
2021/06/11 02:25:04;;;;;;;;;;;;;;;16.22;67.33;99657.91;4364799;32;34971;-93
2021/06/11 02:27:55;;;;;;;;;;;;;;;16.32;66.75;99663.69;4389852;32;36291;-93
2021/06/11 02:30:28;;;;;;;;;;;;;;;16.17;67.41;99655.88;4363603;32;33849;-93
2021/06/11 02:36:34;;;;;;;;;;;;;;;15.97;67.70;99661.53;4210433;32;35660;-89
2021/06/11 02:39:06;;;;;;;;;;;;;;;15.86;68.19;99667.72;4374075;32;33767;-91
2021/06/11 02:41:41;;;;;;;;;;;;;;;16.05;67.65;99666.69;4389061;32;31926;-94
2021/06/11 02:44:57;;;;;;;;;;;;;;;15.93;67.76;99664.91;4252233;32;34973;-89
2021/06/11 02:47:38;;;;;;;;;;;;;;;16.25;66.60;99662.91;4394653;32;34775;-89
2021/06/11 02:50:14;;;;;;;;;;;;;;;16.18;66.62;99663.00;4402689;32;34226;-89
2021/06/11 02:52:47;;;;;;;;;;;;;;;16.04;67.12;99666.91;4422398;32;33119;-93
2021/06/11 02:55:22;;;;;;;;;;;;;;;15.99;67.59;99664.84;4403836;32;34559;-93
2021/06/11 02:57:57;;;;;;;;;;;;;;;16.15;67.00;99668.91;4379661;32;35694;-93
2021/06/11 03:00:34;;;;;;;;;;;;;;;16.10;67.15;99673.34;4410521;32;32813;-89
2021/06/11 03:03:16;;;;;;;;;;;;;;;16.18;66.75;99673.91;4409965;32;33617;-89
2021/06/11 03:05:54;;;;;;;;;;;;;;;16.19;66.82;99685.62;4416246;32;35164;-90
2021/06/11 03:08:28;;;;;;;;;;;;;;;16.12;66.72;99682.13;4421919;32;33473;-91
2021/06/11 03:11:12;;;;;;;;;;;;;;;16.23;66.40;99684.12;4379169;32;34963;-92
2021/06/11 03:13:44;;;;;;;;;;;;;;;16.46;65.45;99682.63;4389004;32;34391;-92
2021/06/11 03:16:17;;;;;;;;;;;;;;;16.32;65.79;99685.50;4387929;32;34226;-94
2021/06/11 03:18:51;;;;;;;;;;;;;;;16.26;66.07;99680.94;4372988;32;35436;-95
2021/06/11 03:21:34;;;;;;;;;;;;;;;16.40;65.84;99679.72;4386182;32;35030;-91
2021/06/11 03:24:16;;;;;;;;;;;;;;;16.26;66.80;99680.94;4361240;32;34381;-91
2021/06/11 03:27:03;;;;;;;;;;;;;;;16.34;66.30;99680.63;4358199;32;34931;-94
2021/06/11 03:29:39;;;;;;;;;;;;;;;16.46;65.58;99679.88;4360977;32;34755;-91
2021/06/11 03:32:12;;;;;;;;;;;;;;;16.64;64.97;99677.12;4366824;32;33485;-93
2021/06/11 03:34:45;;;;;;;;;;;;;;;16.62;64.92;99679.28;4360011;32;34544;-93
2021/06/11 03:37:32;;;;;;;;;;;;;;;16.55;65.26;99694.88;4381110;32;32966;-92
2021/06/11 03:40:06;;;;;;;;;;;;;;;16.46;65.91;99696.25;4406472;32;34628;-91
2021/06/11 03:42:40;;;;;;;;;;;;;;;16.28;66.87;99688.91;4406376;32;33602;-94
2021/06/11 03:45:13;;;;;;;;;;;;;;;16.48;66.49;99694.13;4406075;32;33778;-90
2021/06/11 03:47:47;;;;;;;;;;;;;;;16.41;66.84;99691.47;4408323;32;34686;-92
2021/06/11 03:50:20;;;;;;;;;;;;;;;16.21;67.96;99689.81;4382342;32;34663;-90
2021/06/11 03:52:58;;;;;;;;;;;;;;;16.21;68.56;99694.41;4403450;32;34058;-89
2021/06/11 03:55:32;;;;;;;;;;;;;;;16.54;67.45;99693.22;4412999;32;33130;-92
2021/06/11 03:58:11;;;;;;;;;;;;;;;16.79;66.67;99686.84;4405684;32;33799;-91
2021/06/11 04:00:44;;;;;;;;;;;;;;;16.89;66.31;99687.16;4404543;32;35144;-93
2021/06/11 04:03:17;;;;;;;;;;;;;;;16.67;67.55;99693.06;4420687;32;33890;-89
2021/06/11 04:05:53;;;;;;;;;;;;;;;16.92;67.42;99683.97;4393265;32;33691;-91
2021/06/11 04:08:27;;;;;;;;;;;;;;;16.99;67.00;99694.78;4408069;32;34079;-91
2021/06/11 04:11:00;;;;;;;;;;;;;;;17.04;67.21;99681.28;4408349;32;34089;-91
2021/06/11 04:13:39;;;;;;;;;;;;;;;17.47;65.75;99686.53;4408648;32;34642;-89
2021/06/11 04:16:14;;;;;;;;;;;;;;;17.59;65.87;99682.97;4421639;32;33194;-91
2021/06/11 04:18:47;;;;;;;;;;;;;;;17.31;65.00;99683.63;4392139;32;35516;-91
2021/06/11 04:21:20;;;;;;;;;;;;;;;17.28;65.32;99677.56;4391440;32;34077;-91
2021/06/11 04:23:56;;;;;;;;;;;;;;;17.72;63.82;99685.47;4408580;32;33865;-88
2021/06/11 04:26:29;;;;;;;;;;;;;;;17.99;62.86;99677.72;4395556;32;32080;-90
2021/06/11 04:29:31;;;;;;;;;;;;;;;18.39;62.04;99675.28;4409949;32;35356;-90
2021/06/11 04:32:04;;;;;;;;;;;;;;;18.67;61.64;99677.25;4378844;32;34669;-91
2021/06/11 04:34:37;;;;;;;;;;;;;;;18.94;59.76;99672.06;4378334;32;33873;-90
2021/06/11 04:37:09;;;;;;;;;;;;;;;18.98;60.28;99672.41;4378199;32;33932;-91
2021/06/11 04:39:44;;;;;;;;;;;;;;;19.18;57.94;99672.78;4364522;32;37497;-91
2021/06/11 04:42:16;;;;;;;;;;;;;;;19.21;58.27;99672.28;4364300;32;34375;-90
2021/06/11 04:44:49;;;;;;;;;;;;;;;19.15;58.68;99667.81;4389783;32;33935;-90
2021/06/11 04:47:21;;;;;;;;;;;;;;;19.42;57.79;99661.69;4370337;32;34163;-90
2021/06/11 04:49:54;;;;;;;;;;;;;;;19.34;59.27;99670.31;4406143;32;34838;-92
2021/06/11 04:52:27;;;;;;;;;;;;;;;19.47;59.37;99680.97;4404964;32;33976;-91
2021/06/11 04:55:00;;;;;;;;;;;;;;;19.61;58.56;99681.50;4388442;32;32611;-91
2021/06/11 04:57:32;;;;;;;;;;;;;;;19.49;57.85;99678.81;4389157;32;33784;-91
2021/06/11 05:00:05;;;;;;;;;;;;;;;19.86;57.60;99681.06;4387939;32;32638;-90
2021/06/11 05:02:38;;;;;;;;;;;;;;;20.16;56.99;99679.88;4372648;32;34568;-91
2021/06/11 05:05:11;;;;;;;;;;;;;;;20.36;56.89;99681.25;4394438;32;34054;-92
2021/06/11 05:07:44;;;;;;;;;;;;;;;20.37;57.17;99678.25;4400068;32;32511;-90
2021/06/11 05:10:17;;;;;;;;;;;;;;;20.26;58.71;99682.78;4379725;32;34532;-91
2021/06/11 05:12:49;;;;;;;;;;;;;;;20.57;56.57;99677.72;4379567;32;33733;-92
2021/06/11 05:15:22;;;;;;;;;;;;;;;20.71;56.25;99680.09;4379514;32;34726;-91
2021/06/11 05:17:54;;;;;;;;;;;;;;;20.70;56.54;99682.00;4401597;32;32943;-91
2021/06/11 05:20:28;;;;;;;;;;;;;;;20.84;56.47;99681.59;4403265;32;34072;-91
2021/06/11 05:23:00;;;;;;;;;;;;;;;20.76;56.53;99682.91;4361558;32;34470;-90
2021/06/11 05:25:37;;;;;;;;;;;;;;;20.83;55.93;99686.28;4387351;32;34167;-90
2021/06/11 05:28:09;;;;;;;;;;;;;;;20.67;57.53;99689.94;4394644;32;32825;-91
2021/06/11 05:30:45;;;;;;;;;;;;;;;20.75;57.99;99692.25;4393243;32;34097;-92
2021/06/11 05:33:18;;;;;;;;;;;;;;;20.80;58.46;99698.59;4402741;32;33974;-90
2021/06/11 05:35:50;;;;;;;;;;;;;;;21.08;58.42;99704.16;4402159;32;34069;-89
2021/06/11 05:38:23;;;;;;;;;;;;;;;21.20;58.25;99695.75;4413138;32;34488;-91
2021/06/11 05:40:58;;;;;;;;;;;;;;;21.23;57.01;99696.06;4413061;32;33703;-89
2021/06/11 05:43:30;;;;;;;;;;;;;;;21.21;57.99;99698.22;4415397;32;34646;-89
2021/06/11 05:46:04;;;;;;;;;;;;;;;21.17;59.50;99697.09;4417945;32;34017;-88
2021/06/11 05:48:39;;;;;;;;;;;;;;;21.13;59.19;99702.28;4403126;32;34072;-94
2021/06/11 05:51:12;;;;;;;;;;;;;;;21.59;56.75;99703.87;4393743;32;34019;-93
2021/06/11 05:53:45;;;;;;;;;;;;;;;21.62;55.67;99704.16;4382609;32;34510;-89
2021/06/11 05:56:18;;;;;;;;;;;;;;;21.96;52.46;99698.41;4408999;32;33954;-89
2021/06/11 05:58:50;;;;;;;;;;;;;;;21.79;53.20;99701.28;4391260;32;33724;-90
2021/06/11 06:01:23;;;;;;;;;;;;;;;22.03;53.90;99701.72;4420089;32;34844;-90
2021/06/11 06:03:56;;;;;;;;;;;;;;;21.94;56.06;99705.25;4406488;32;35900;-95
2021/06/11 06:06:28;;;;;;;;;;;;;;;22.08;55.15;99708.38;4404007;32;34147;-91
2021/06/11 06:09:01;;;;;;;;;;;;;;;22.29;55.84;99701.91;4407260;32;33011;-93
2021/06/11 06:14:52;;;;;;;;;;;;;;;22.34;52.92;99709.41;4383530;32;34010;-89
2021/06/11 06:17:31;;;;;;;;;;;;;;;22.37;52.27;99704.19;4386717;32;33632;-94
2021/06/11 06:20:11;;;;;;;;;;;;;;;22.76;49.74;99699.44;4434562;32;33530;-95
2021/06/11 06:22:43;;;;;;;;;;;;;;;22.65;49.70;99704.88;4397603;32;34742;-94
2021/06/11 06:25:28;;;;;;;;;;;;;;;22.61;48.62;99708.44;4448670;32;33393;-93
2021/06/11 06:28:00;;;;;;;;;;;;;;;22.70;49.17;99712.34;4428857;32;32878;-92
2021/06/11 06:30:39;;;;;;;;;;;;;;;22.93;48.70;99708.28;4409835;32;33502;-94
2021/06/11 06:33:11;;;;;;;;;;;;;;;23.04;48.99;99698.13;4427500;32;34016;-94
2021/06/11 06:35:48;;;;;;;;;;;;;;;22.91;47.41;99702.22;4434175;32;32949;-94
2021/06/11 06:38:24;;;;;;;;;;;;;;;22.99;47.89;99698.94;4422285;32;34257;-94
2021/06/11 06:41:08;;;;;;;;;;;;;;;23.24;46.43;99705.66;4402878;32;31519;-94
2021/06/11 06:43:40;;;;;;;;;;;;;;;23.29;48.07;99710.34;4394316;32;34426;-94
2021/06/11 06:46:16;;;;;;;;;;;;;;;23.62;47.70;99706.25;4410362;32;33702;-90
2021/06/11 06:48:49;;;;;;;;;;;;;;;23.80;47.92;99707.62;4397075;32;33867;-91
2021/06/11 06:51:25;;;;;;;;;;;;;;;23.99;47.31;99705.19;4396016;32;33701;-91
2021/06/11 06:54:00;;;;;;;;;;;;;;;23.87;46.89;99702.69;4385349;32;34720;-91
2021/06/11 06:56:33;;;;;;;;;;;;;;;24.02;47.56;99710.16;4421709;32;34295;-92
2021/06/11 06:59:05;;;;;;;;;;;;;;;23.84;46.15;99710.69;4409700;32;34037;-89
2021/06/11 07:01:41;;;;;;;;;;;;;;;24.19;46.12;99711.78;4409320;32;33217;-90
2021/06/11 07:04:13;;;;;;;;;;;;;;;24.46;44.66;99715.03;4409668;32;33944;-90
2021/06/11 07:06:49;;;;;;;;;;;;;;;24.28;43.57;99710.94;4421584;32;34075;-90
2021/06/11 07:09:22;;;;;;;;;;;;;;;24.32;43.16;99708.44;4421288;32;33676;-90
2021/06/11 07:11:54;;;;;;;;;;;;;;;24.49;40.78;99708.09;4402599;32;34152;-91
2021/06/11 07:14:27;;;;;;;;;;;;;;;24.45;42.17;99712.56;4409083;32;34048;-91
2021/06/11 07:17:01;;;;;;;;;;;;;;;24.80;43.35;99710.81;4418261;32;34173;-91
2021/06/11 07:19:33;;;;;;;;;;;;;;;25.08;43.13;99717.59;4396867;32;34005;-93
2021/06/11 07:22:10;;;;;;;;;;;;;;;24.78;41.77;99715.81;4395149;32;32770;-92
2021/06/11 07:24:43;;;;;;;;;;;;;;;24.88;38.74;99717.66;4405802;32;33800;-93
2021/06/11 07:27:16;;;;;;;;;;;;;;;25.27;39.61;99719.69;4382335;32;34758;-92
2021/06/11 07:29:50;;;;;;;;;;;;;;;25.18;40.32;99716.69;4392257;32;33318;-91
2021/06/11 07:32:23;;;;;;;;;;;;;;;25.52;39.93;99721.50;4411557;32;32853;-93
2021/06/11 07:34:56;;;;;;;;;;;;;;;25.58;42.35;99719.53;4395046;32;34018;-92
2021/06/11 07:37:31;;;;;;;;;;;;;;;25.85;41.68;99711.56;4395241;32;33915;-92
2021/06/11 07:40:04;;;;;;;;;;;;;;;25.93;39.32;99715.66;4393511;32;36197;-92
2021/06/11 07:42:37;;;;;;;;;;;;;;;26.21;39.41;99716.78;4404659;32;33955;-91
2021/06/11 07:45:10;;;;;;;;;;;;;;;26.07;38.40;99713.06;4405717;32;34012;-91
2021/06/11 07:47:43;;;;;;;;;;;;;;;26.13;36.64;99717.41;4403841;32;33984;-92
2021/06/11 07:50:15;;;;;;;;;;;;;;;26.03;36.56;99707.28;4401739;32;33700;-94
2021/06/11 07:52:56;;;;;;;;;;;;;;;26.49;36.88;99717.03;4397502;32;33014;-92
2021/06/11 07:55:31;;;;;;;;;;;;;;;26.54;34.89;99710.63;4367423;32;34240;-92
2021/06/11 07:58:04;;;;;;;;;;;;;;;25.95;36.32;99710.63;4375764;32;35376;-92
2021/06/11 08:00:37;;;;;;;;;;;;;;;26.74;36.56;99709.59;4375091;32;35065;-93
2021/06/11 08:03:10;;;;;;;;;;;;;;;26.44;36.20;99700.50;4363213;32;33266;-92
2021/06/11 08:05:43;;;;;;;;;;;;;;;26.71;36.15;99710.19;4371021;32;34800;-93
2021/06/11 08:08:16;;;;;;;;;;;;;;;26.83;36.16;99702.28;4380859;32;34754;-92
2021/06/11 08:10:49;;;;;;;;;;;;;;;27.21;35.55;99699.53;4400216;32;34668;-92
2021/06/11 08:13:21;;;;;;;;;;;;;;;27.18;36.83;99702.91;4375435;32;33903;-93
2021/06/11 08:15:54;;;;;;;;;;;;;;;27.60;36.27;99714.25;4372980;32;34258;-93
2021/06/11 08:18:34;;;;;;;;;;;;;;;27.90;35.28;99707.34;4430863;32;33317;-93
2021/06/11 08:21:07;;;;;;;;;;;;;;;28.22;33.45;99708.50;4435151;32;34463;-94
2021/06/11 08:23:43;;;;;;;;;;;;;;;27.93;34.11;99705.91;4435617;32;33453;-94
2021/06/11 08:26:15;;;;;;;;;;;;;;;28.46;33.39;99707.47;4432414;32;33284;-95
2021/06/11 08:28:49;;;;;;;;;;;;;;;28.68;34.75;99710.41;4428496;32;32812;-94
2021/06/11 08:31:21;;;;;;;;;;;;;;;28.63;33.00;99710.50;4446007;32;32943;-93
2021/06/11 08:33:57;;;;;;;;;;;;;;;28.47;32.23;99711.91;4445541;32;33374;-95
2021/06/11 08:36:34;;;;;;;;;;;;;;;28.54;32.18;99720.66;4436784;32;33386;-95
2021/06/11 08:39:07;;;;;;;;;;;;;;;28.90;33.33;99713.59;4439418;32;34949;-94
2021/06/11 08:41:42;;;;;;;;;;;;;;;28.64;32.96;99723.28;4434018;32;33946;-94
2021/06/11 08:44:17;;;;;;;;;;;;;;;28.22;32.34;99711.28;4447581;32;33171;-91
2021/06/11 08:46:52;;;;;;;;;;;;;;;28.42;34.81;99706.47;4443301;32;34801;-94
2021/06/11 08:49:26;;;;;;;;;;;;;;;27.62;34.81;99706.41;4444088;32;33398;-96
2021/06/11 08:51:59;;;;;;;;;;;;;;;28.24;33.51;99711.78;4441604;32;34156;-95
2021/06/11 08:54:43;;;;;;;;;;;;;;;28.32;34.34;99713.88;4378631;32;33571;-93
2021/06/11 08:57:15;;;;;;;;;;;;;;;28.09;34.00;99709.28;4388255;32;33019;-94
2021/06/11 08:59:52;;;;;;;;;;;;;;;28.08;33.97;99713.19;4376840;32;33748;-95
2021/06/11 09:02:26;;;;;;;;;;;;;;;27.88;34.35;99709.63;4377695;32;33065;-96
2021/06/11 09:05:19;;;;;;;;;;;;;;;27.61;34.47;99716.72;4412401;32;34474;-93
2021/06/11 09:07:52;;;;;;;;;;;;;;;27.69;34.99;99715.19;4397840;32;33873;-92
2021/06/11 09:10:29;;;;;;;;;;;;;;;27.60;36.33;99709.50;4399182;32;34396;-95
2021/06/11 09:13:04;;;;;;;;;;;;;;;27.51;35.70;99710.50;4419829;32;32891;-95
2021/06/11 09:16:11;;;;;;;;;;;;;;;26.78;36.30;99710.63;4413110;32;33304;-93
2021/06/11 09:18:48;;;;;;;;;;;;;;;27.01;35.73;99716.47;4418436;32;35079;-94
2021/06/11 09:21:36;;;;;;;;;;;;;;;26.56;35.84;99717.53;4412403;32;34027;-94
2021/06/11 09:24:24;;;;;;;;;;;;;;;26.80;36.06;99713.09;4423216;32;33306;-94
2021/06/11 09:27:04;;;;;;;;;;;;;;;26.56;37.27;99711.16;4432386;32;34014;-94
2021/06/11 09:29:38;;;;;;;;;;;;;;;26.35;35.62;99705.84;4410605;32;34444;-92
2021/06/11 09:32:20;;;;;;;;;;;;;;;26.92;36.14;99713.53;4411009;32;34180;-92
2021/06/11 09:34:55;;;;;;;;;;;;;;;26.95;35.21;99710.97;4427802;32;32411;-91
2021/06/11 09:37:33;;;;;;;;;;;;;;;27.30;35.68;99705.22;4418924;32;32908;-95
2021/06/11 09:40:11;;;;;;;;;;;;;;;27.08;36.74;99703.03;4424571;32;33902;-94
2021/06/11 09:42:47;;;;;;;;;;;;;;;26.59;35.86;99697.53;4423762;32;32927;-93
2021/06/11 09:45:20;;;;;;;;;;;;;;;26.43;34.97;99698.81;4409895;32;34382;-94
2021/06/11 09:47:53;;;;;;;;;;;;;;;27.78;35.81;99693.94;4413285;32;33045;-94
2021/06/11 09:50:34;;;;;;;;;;;;;;;28.53;32.73;99694.00;4411551;32;34512;-94
2021/06/11 09:53:08;;;;;;;;;;;;;;;28.73;31.61;99689.19;4424214;32;33485;-93
2021/06/11 09:55:46;;;;;;;;;;;;;;;29.17;31.85;99693.22;4421711;32;33943;-96
2021/06/11 09:58:21;;;;;;;;;;;;;;;29.63;30.77;99685.75;4420821;32;32708;-95
2021/06/11 10:01:11;;;;;;;;;;;;;;;30.11;31.12;99680.37;4404162;32;34948;-96
2021/06/11 10:03:53;;;;;;;;;;;;;;;29.10;31.48;99682.53;4383056;32;32664;-95
2021/06/11 10:06:43;;;;;;;;;;;;;;;28.70;32.34;99676.75;4390178;32;34265;-93
2021/06/11 10:09:17;;;;;;;;;;;;;;;28.55;32.50;99680.63;4368561;32;35122;-92
2021/06/11 10:11:49;;;;;;;;;;;;;;;28.33;33.63;99682.16;4391922;32;33693;-92
2021/06/11 10:14:22;;;;;;;;;;;;;;;28.56;31.60;99673.09;4394035;32;34394;-92
2021/06/11 10:16:55;;;;;;;;;;;;;;;28.31;32.14;99673.31;4381778;32;35415;-94
2021/06/11 10:19:42;;;;;;;;;;;;;;;28.07;34.74;99679.03;4412937;32;33419;-93
2021/06/11 10:22:14;;;;;;;;;;;;;;;28.38;34.66;99678.44;4401067;32;34215;-94
2021/06/11 10:24:52;;;;;;;;;;;;;;;28.28;33.80;99671.16;4411531;32;34183;-92
2021/06/11 10:27:26;;;;;;;;;;;;;;;28.19;34.39;99673.00;4400970;32;34402;-96
2021/06/11 10:30:00;;;;;;;;;;;;;;;27.97;35.87;99677.25;4390251;32;33500;-93
2021/06/11 10:32:39;;;;;;;;;;;;;;;27.40;37.84;99677.38;4410650;32;34231;-93
2021/06/11 10:35:12;;;;;;;;;;;;;;;27.36;39.01;99683.81;4411975;32;33657;-93
2021/06/11 10:37:46;;;;;;;;;;;;;;;27.42;41.96;99682.59;4398233;32;34531;-92
2021/06/11 10:40:23;;;;;;;;;;;;;;;26.98;44.20;99694.84;4406629;32;32891;-92
2021/06/11 10:42:56;;;;;;;;;;;;;;;26.63;49.53;99696.94;4398824;32;34768;-95
2021/06/11 10:45:40;;;;;;;;;;;;;;;26.38;52.59;99708.03;4419423;32;34182;-96
2021/06/11 10:48:13;;;;;;;;;;;;;;;25.73;50.57;99708.31;4408813;32;34223;-96
2021/06/11 10:50:58;;;;;;;;;;;;;;;24.80;53.25;99728.19;4396618;32;33680;-91
2021/06/11 10:54:22;;;;;;;;;;;;;;;23.91;54.35;99730.59;4448778;32;34835;-96
2021/06/11 10:56:56;;;;;;;;;;;;;;;22.24;62.03;99745.09;4457647;32;34932;-90
2021/06/11 10:59:31;;;;;;;;;;;;;;;21.00;65.60;99749.37;4437669;32;33828;-89
2021/06/11 11:02:07;;;;;;;;;;;;;;;19.86;66.10;99730.44;4468821;32;32723;-89
2021/06/11 11:04:50;;;;;;;;;;;;;;;20.12;64.38;99741.84;4437221;32;33864;-92
2021/06/11 11:07:23;;;;;;;;;;;;;;;20.13;66.75;99748.16;4436329;32;34747;-96
2021/06/11 11:09:57;;;;;;;;;;;;;;;20.42;65.27;99751.63;4423423;32;33271;-96
2021/06/11 11:12:59;;;;;;;;;;;;;;;20.16;65.37;99756.69;4302162;32;36579;-96
2021/06/11 11:15:41;;;;;;;;;;;;;;;20.46;63.30;99755.50;4433931;32;34684;-91
2021/06/11 11:18:20;;;;;;;;;;;;;;;20.21;66.30;99750.47;4434738;32;34717;-96
2021/06/11 11:20:52;;;;;;;;;;;;;;;19.67;65.06;99748.19;4413385;32;32597;-91
2021/06/11 11:23:26;;;;;;;;;;;;;;;19.50;67.48;99740.75;4437719;32;33217;-96
2021/06/11 11:25:59;;;;;;;;;;;;;;;19.80;67.06;99742.41;4422404;32;34418;-92
2021/06/11 11:28:33;;;;;;;;;;;;;;;19.73;66.07;99741.69;4423632;32;34794;-96
2021/06/11 11:31:05;;;;;;;;;;;;;;;19.16;68.99;99742.59;4437239;32;34164;-91
2021/06/11 11:33:38;;;;;;;;;;;;;;;19.71;69.54;99741.94;4440182;32;33963;-96
2021/06/11 11:36:11;;;;;;;;;;;;;;;19.93;66.05;99738.50;4436560;32;34823;-96
2021/06/11 11:39:06;;;;;;;;;;;;;;;20.00;60.25;99738.34;4447559;32;37791;-90
2021/06/11 11:41:39;;;;;;;;;;;;;;;19.91;59.30;99730.53;4438139;32;33812;-96
2021/06/11 11:44:26;;;;;;;;;;;;;;;19.39;61.51;99725.22;4396805;32;31937;-96
2021/06/11 11:47:00;;;;;;;;;;;;;;;19.64;62.94;99718.53;4394692;32;34360;-90
2021/06/11 11:49:33;;;;;;;;;;;;;;;19.93;61.67;99716.56;4406425;32;33793;-96
2021/06/11 11:52:08;;;;;;;;;;;;;;;19.71;61.75;99706.31;4407141;32;34097;-95
2021/06/11 11:55:26;;;;;;;;;;;;;;;19.95;60.60;99705.34;4343806;33;35431;-96
2021/06/11 11:57:59;;;;;;;;;;;;;;;19.61;63.58;99692.47;4321414;33;34127;-96
2021/06/11 12:00:47;;;;;;;;;;;;;;;19.62;65.44;99669.44;4336207;33;33952;-95
2021/06/11 12:03:35;;;;;;;;;;;;;;;18.86;64.61;99665.06;4336735;33;34039;-96
2021/06/11 12:06:08;;;;;;;;;;;;;;;19.19;64.61;99660.75;4311792;33;33830;-89
2021/06/11 12:08:43;;;;;;;;;;;;;;;19.34;65.91;99662.94;4334310;33;34458;-90
2021/06/11 12:11:19;;;;;;;;;;;;;;;19.43;62.18;99655.16;4316911;33;34932;-92
2021/06/11 12:13:52;;;;;;;;;;;;;;;19.80;59.82;99654.66;4331237;33;34073;-90
2021/06/11 12:16:25;;;;;;;;;;;;;;;20.01;59.78;99646.75;4328495;33;33716;-90
2021/06/11 12:18:58;;;;;;;;;;;;;;;20.39;59.85;99639.56;4343463;33;33612;-90
2021/06/11 12:21:30;;;;;;;;;;;;;;;21.02;60.11;99625.50;4327213;33;34972;-90
2021/06/11 12:24:03;;;;;;;;;;;;;;;21.48;61.42;99617.66;4325893;33;32605;-90
2021/06/11 12:26:36;;;;;;;;;;;;;;;21.99;56.90;99614.47;4326873;33;33670;-90
2021/06/11 12:29:11;;;;;;;;;;;;;;;21.61;53.10;99600.75;4317326;33;33614;-90
2021/06/11 12:31:43;;;;;;;;;;;;;;;21.42;55.86;99602.22;4330957;33;34898;-91
2021/06/11 12:34:16;;;;;;;;;;;;;;;22.23;58.43;99598.41;4329048;33;33411;-96
2021/06/11 12:36:52;;;;;;;;;;;;;;;22.24;54.94;99597.28;4339282;33;33284;-92
2021/06/11 12:39:25;;;;;;;;;;;;;;;22.25;56.82;99601.69;4330495;33;33817;-91
2021/06/11 12:42:00;;;;;;;;;;;;;;;22.44;55.83;99592.97;4321786;33;33918;-94
2021/06/11 12:44:46;;;;;;;;;;;;;;;22.81;56.57;99589.25;4324675;33;35212;-91
2021/06/11 12:47:18;;;;;;;;;;;;;;;23.39;54.79;99591.81;4344217;32;34259;-91
2021/06/11 12:49:51;;;;;;;;;;;;;;;23.85;54.03;99586.28;4340579;32;34936;-91
2021/06/11 12:52:24;;;;;;;;;;;;;;;24.74;57.59;99593.12;4342736;32;34050;-90
2021/06/11 12:54:58;;;;;;;;;;;;;;;25.72;55.76;99596.81;4355020;32;33629;-90
2021/06/11 12:57:31;;;;;;;;;;;;;;;26.38;50.95;99596.41;4372898;32;33786;-89
2021/06/11 13:00:05;;;;;;;;;;;;;;;26.94;48.09;99590.09;4318045;32;34502;-90
2021/06/11 13:02:37;;;;;;;;;;;;;;;27.97;43.58;99585.62;4304454;33;34255;-90
2021/06/11 13:05:11;;;;;;;;;;;;;;;28.62;43.33;99583.75;4325037;33;35335;-91
2021/06/11 13:07:44;;;;;;;;;;;;;;;29.63;42.86;99588.31;4329265;33;33220;-91
2021/06/11 13:10:16;;;;;;;;;;;;;;;30.31;47.23;99583.41;4329412;33;35031;-91
2021/06/11 13:12:50;;;;;;;;;;;;;;;30.90;42.24;99573.84;4326289;33;33594;-90
2021/06/11 13:15:23;;;;;;;;;;;;;;;31.39;38.71;99580.06;4341074;32;35654;-90
2021/06/11 13:17:59;;;;;;;;;;;;;;;31.83;42.56;99583.63;4336246;33;33221;-91
2021/06/11 13:20:33;;;;;;;;;;;;;;;32.28;38.05;99587.09;4336336;33;33884;-91
2021/06/11 13:23:08;;;;;;;;;;;;;;;32.88;33.94;99583.06;4331218;32;34887;-91
2021/06/11 13:25:41;;;;;;;;;;;;;;;32.66;34.54;99583.41;4345243;32;34410;-91
2021/06/11 13:28:13;;;;;;;;;;;;;;;32.06;38.03;99580.56;4329956;33;33903;-91
2021/06/11 13:30:47;;;;;;;;;;;;;;;32.01;41.46;99580.75;4334271;33;34310;-91
2021/06/11 13:33:20;;;;;;;;;;;;;;;31.42;41.92;99587.78;4314671;33;34390;-91
2021/06/11 13:35:53;;;;;;;;;;;;;;;31.60;43.89;99580.22;4325640;33;33534;-91
2021/06/11 13:38:34;;;;;;;;;;;;;;;31.42;43.06;99576.63;4328483;33;33781;-96
2021/06/11 13:41:40;;;;;;;;;;;;;;;31.44;43.42;99577.13;4312186;33;32735;-95
2021/06/11 13:44:22;;;;;;;;;;;;;;;31.89;44.41;99566.66;4311954;33;33189;-96